Jamshedpur, India
Current Conditions -  °F | °C
As of 10:20 PM on Thursday 23 Oct 2014 (Local Time) from VECC Reporting Station
Smoke Smoke  
Wind Chill: 77°   Ceiling: Unl
Heat Index: 78°   Visibility: 0.62mi
Dew Point: 72°   Wind: 0mph
Humidity: 83%   Direction: NA
Pressure: 29.88"   Gusts: NA
Location:  22.78°N, 86.21°E
Report Text: VECC 231720Z 00000KT 1000 R19L/P2000 RMID/1800 R01R/1800 R19R/P2000 FU NSC 25/22 Q1012 NOSIG
Loading
Personal Weather Stations






























Interactive Weather Map
Tropical Storm Tracking
New forecast layout! Learn more

10-Day Weather Forecast

Advertisements
Track Severe Weather on mobile